sensor_id;sensor_type;location;lat;lon;timestamp;temperature;humidity
17178;DHT22;8704;52.006;4.374;2022-07-09T00:02:09;17.60;99.90
17178;DHT22;8704;52.006;4.374;2022-07-09T00:04:37;17.50;99.90
17178;DHT22;8704;52.006;4.374;2022-07-09T00:07:05;17.40;99.90
17178;DHT22;8704;52.006;4.374;2022-07-09T00:09:33;17.40;99.90
17178;DHT22;8704;52.006;4.374;2022-07-09T00:12:03;17.40;99.90
17178;DHT22;8704;52.006;4.374;2022-07-09T00:14:31;17.30;99.90
17178;DHT22;8704;52.006;4.374;2022-07-09T00:16:59;17.30;99.90
17178;DHT22;8704;52.006;4.374;2022-07-09T00:19:26;17.30;99.90
17178;DHT22;8704;52.006;4.374;2022-07-09T00:21:55;17.30;99.90
17178;DHT22;8704;52.006;4.374;2022-07-09T00:24:22;17.20;99.90
17178;DHT22;8704;52.006;4.374;2022-07-09T00:26:50;17.20;99.90
17178;DHT22;8704;52.006;4.374;2022-07-09T00:29:20;17.30;99.90
17178;DHT22;8704;52.006;4.374;2022-07-09T00:31:48;17.20;99.90
17178;DHT22;8704;52.006;4.374;2022-07-09T00:34:16;17.20;99.90
17178;DHT22;8704;52.006;4.374;2022-07-09T00:36:43;17.20;99.90
17178;DHT22;8704;52.006;4.374;2022-07-09T00:39:11;17.10;99.90
17178;DHT22;8704;52.006;4.374;2022-07-09T00:41:39;17.20;99.90
17178;DHT22;8704;52.006;4.374;2022-07-09T00:44:07;17.10;99.90
17178;DHT22;8704;52.006;4.374;2022-07-09T00:46:37;17.10;99.90
17178;DHT22;8704;52.006;4.374;2022-07-09T00:49:05;17.70;99.90
17178;DHT22;8704;52.006;4.374;2022-07-09T00:51:33;17.10;99.90
17178;DHT22;8704;52.006;4.374;2022-07-09T00:54:01;17.10;99.90
17178;DHT22;8704;52.006;4.374;2022-07-09T00:56:30;17.00;99.90
17178;DHT22;8704;52.006;4.374;2022-07-09T00:58:59;17.80;99.90
17178;DHT22;8704;52.006;4.374;2022-07-09T01:01:27;17.00;99.90
17178;DHT22;8704;52.006;4.374;2022-07-09T01:03:57;17.00;99.90
17178;DHT22;8704;52.006;4.374;2022-07-09T01:06:24;17.00;99.90
17178;DHT22;8704;52.006;4.374;2022-07-09T01:08:52;16.90;99.90
17178;DHT22;8704;52.006;4.374;2022-07-09T01:11:20;16.80;99.90
17178;DHT22;8704;52.006;4.374;2022-07-09T01:13:49;16.90;99.90
17178;DHT22;8704;52.006;4.374;2022-07-09T01:16:18;16.80;99.90
17178;DHT22;8704;52.006;4.374;2022-07-09T01:18:47;16.80;99.90
17178;DHT22;8704;52.006;4.374;2022-07-09T01:21:16;16.80;99.90
17178;DHT22;8704;52.006;4.374;2022-07-09T01:23:44;16.80;99.90
17178;DHT22;8704;52.006;4.374;2022-07-09T01:26:12;16.80;99.90
17178;DHT22;8704;52.006;4.374;2022-07-09T01:28:40;16.80;99.90
17178;DHT22;8704;52.006;4.374;2022-07-09T01:31:08;16.90;99.90
17178;DHT22;8704;52.006;4.374;2022-07-09T01:33:36;16.80;99.90
17178;DHT22;8704;52.006;4.374;2022-07-09T01:36:04;16.80;99.90
17178;DHT22;8704;52.006;4.374;2022-07-09T01:38:34;16.80;99.90
17178;DHT22;8704;52.006;4.374;2022-07-09T01:41:02;16.80;99.90
17178;DHT22;8704;52.006;4.374;2022-07-09T01:43:30;16.80;99.90
17178;DHT22;8704;52.006;4.374;2022-07-09T01:46:00;16.80;99.90
17178;DHT22;8704;52.006;4.374;2022-07-09T01:48:28;16.80;99.90
17178;DHT22;8704;52.006;4.374;2022-07-09T01:50:57;16.80;99.90
17178;DHT22;8704;52.006;4.374;2022-07-09T01:53:25;16.80;99.90
17178;DHT22;8704;52.006;4.374;2022-07-09T01:55:55;16.70;99.90
17178;DHT22;8704;52.006;4.374;2022-07-09T01:58:22;16.70;99.90
17178;DHT22;8704;52.006;4.374;2022-07-09T02:00:50;16.70;99.90
17178;DHT22;8704;52.006;4.374;2022-07-09T02:03:18;16.60;99.90
17178;DHT22;8704;52.006;4.374;2022-07-09T02:05:46;16.70;99.90
17178;DHT22;8704;52.006;4.374;2022-07-09T02:08:14;16.60;99.90
17178;DHT22;8704;52.006;4.374;2022-07-09T02:10:42;16.60;99.90
17178;DHT22;8704;52.006;4.374;2022-07-09T02:13:11;16.60;99.90
17178;DHT22;8704;52.006;4.374;2022-07-09T02:15:39;16.60;99.90
17178;DHT22;8704;52.006;4.374;2022-07-09T02:18:07;16.50;99.90
17178;DHT22;8704;52.006;4.374;2022-07-09T02:20:35;16.50;99.90
17178;DHT22;8704;52.006;4.374;2022-07-09T02:23:04;16.50;99.90
17178;DHT22;8704;52.006;4.374;2022-07-09T02:25:32;16.50;99.90
17178;DHT22;8704;52.006;4.374;2022-07-09T02:28:00;16.40;99.90
17178;DHT22;8704;52.006;4.374;2022-07-09T02:30:29;16.40;99.90
17178;DHT22;8704;52.006;4.374;2022-07-09T02:32:57;16.40;99.90
17178;DHT22;8704;52.006;4.374;2022-07-09T02:35:25;16.30;99.90
17178;DHT22;8704;52.006;4.374;2022-07-09T02:37:53;16.40;99.90
17178;DHT22;8704;52.006;4.374;2022-07-09T02:40:21;16.40;99.90
17178;DHT22;8704;52.006;4.374;2022-07-09T02:42:49;16.50;99.90
17178;DHT22;8704;52.006;4.374;2022-07-09T02:45:17;16.50;99.90
17178;DHT22;8704;52.006;4.374;2022-07-09T02:47:47;16.50;99.90
17178;DHT22;8704;52.006;4.374;2022-07-09T02:50:14;16.50;99.90
17178;DHT22;8704;52.006;4.374;2022-07-09T02:52:42;16.50;99.90
17178;DHT22;8704;52.006;4.374;2022-07-09T02:55:10;16.60;99.90
17178;DHT22;8704;52.006;4.374;2022-07-09T02:57:38;16.60;99.90
17178;DHT22;8704;52.006;4.374;2022-07-09T03:00:07;16.60;99.90
17178;DHT22;8704;52.006;4.374;2022-07-09T03:02:35;16.60;99.90
17178;DHT22;8704;52.006;4.374;2022-07-09T03:05:06;16.60;99.90
17178;DHT22;8704;52.006;4.374;2022-07-09T03:07:34;16.60;99.90
17178;DHT22;8704;52.006;4.374;2022-07-09T03:10:02;16.70;99.90
17178;DHT22;8704;52.006;4.374;2022-07-09T03:12:30;16.70;99.90
17178;DHT22;8704;52.006;4.374;2022-07-09T03:14:58;16.70;99.90
17178;DHT22;8704;52.006;4.374;2022-07-09T03:17:26;16.70;99.90
17178;DHT22;8704;52.006;4.374;2022-07-09T03:19:54;16.70;99.90
17178;DHT22;8704;52.006;4.374;2022-07-09T03:22:23;16.80;99.90
17178;DHT22;8704;52.006;4.374;2022-07-09T03:24:51;16.80;99.90
17178;DHT22;8704;52.006;4.374;2022-07-09T03:27:20;16.80;99.90
17178;DHT22;8704;52.006;4.374;2022-07-09T03:29:48;16.80;99.90
17178;DHT22;8704;52.006;4.374;2022-07-09T03:32:16;16.80;99.90
17178;DHT22;8704;52.006;4.374;2022-07-09T03:34:44;16.80;99.90
17178;DHT22;8704;52.006;4.374;2022-07-09T03:37:12;16.80;99.90
17178;DHT22;8704;52.006;4.374;2022-07-09T03:39:42;16.90;99.90
17178;DHT22;8704;52.006;4.374;2022-07-09T03:42:09;16.90;99.90
17178;DHT22;8704;52.006;4.374;2022-07-09T03:44:38;16.90;99.90
17178;DHT22;8704;52.006;4.374;2022-07-09T03:47:06;16.90;99.90
17178;DHT22;8704;52.006;4.374;2022-07-09T03:49:35;16.90;99.90
17178;DHT22;8704;52.006;4.374;2022-07-09T03:52:04;16.90;99.90
17178;DHT22;8704;52.006;4.374;2022-07-09T03:54:49;16.90;99.90
17178;DHT22;8704;52.006;4.374;2022-07-09T03:57:17;16.90;99.90
17178;DHT22;8704;52.006;4.374;2022-07-09T03:59:45;16.90;99.90
17178;DHT22;8704;52.006;4.374;2022-07-09T04:02:13;16.90;99.90
17178;DHT22;8704;52.006;4.374;2022-07-09T04:04:41;17.00;99.90
17178;DHT22;8704;52.006;4.374;2022-07-09T04:07:10;17.00;99.90
17178;DHT22;8704;52.006;4.374;2022-07-09T04:09:38;17.00;99.90
17178;DHT22;8704;52.006;4.374;2022-07-09T04:12:08;17.00;99.90
17178;DHT22;8704;52.006;4.374;2022-07-09T04:14:36;17.00;99.90
17178;DHT22;8704;52.006;4.374;2022-07-09T04:17:04;17.00;99.90
17178;DHT22;8704;52.006;4.374;2022-07-09T04:19:33;17.10;99.90
17178;DHT22;8704;52.006;4.374;2022-07-09T04:22:01;17.10;99.90
17178;DHT22;8704;52.006;4.374;2022-07-09T04:24:29;17.20;99.90
17178;DHT22;8704;52.006;4.374;2022-07-09T04:26:57;17.10;99.90
17178;DHT22;8704;52.006;4.374;2022-07-09T04:29:26;17.20;99.90
17178;DHT22;8704;52.006;4.374;2022-07-09T04:31:54;17.20;99.90
17178;DHT22;8704;52.006;4.374;2022-07-09T04:34:22;17.20;99.90
17178;DHT22;8704;52.006;4.374;2022-07-09T04:36:50;17.20;99.90
17178;DHT22;8704;52.006;4.374;2022-07-09T04:39:18;17.30;99.90
17178;DHT22;8704;52.006;4.374;2022-07-09T04:41:46;17.40;99.90
17178;DHT22;8704;52.006;4.374;2022-07-09T04:44:14;17.40;99.90
17178;DHT22;8704;52.006;4.374;2022-07-09T04:46:44;17.50;99.90
17178;DHT22;8704;52.006;4.374;2022-07-09T04:49:12;17.50;99.90
17178;DHT22;8704;52.006;4.374;2022-07-09T04:51:40;17.40;99.90
17178;DHT22;8704;52.006;4.374;2022-07-09T04:54:08;17.50;99.90
17178;DHT22;8704;52.006;4.374;2022-07-09T04:56:36;17.60;99.90
17178;DHT22;8704;52.006;4.374;2022-07-09T04:59:04;17.60;99.90
17178;DHT22;8704;52.006;4.374;2022-07-09T05:01:31;17.60;99.90
17178;DHT22;8704;52.006;4.374;2022-07-09T05:04:01;17.60;99.90
17178;DHT22;8704;52.006;4.374;2022-07-09T05:06:29;17.90;99.90
17178;DHT22;8704;52.006;4.374;2022-07-09T05:08:57;17.70;99.90
17178;DHT22;8704;52.006;4.374;2022-07-09T05:11:25;17.80;99.90
17178;DHT22;8704;52.006;4.374;2022-07-09T05:13:53;17.70;99.90
17178;DHT22;8704;52.006;4.374;2022-07-09T05:16:21;17.70;99.90
17178;DHT22;8704;52.006;4.374;2022-07-09T05:18:49;17.70;99.90
17178;DHT22;8704;52.006;4.374;2022-07-09T05:21:18;17.60;99.90
17178;DHT22;8704;52.006;4.374;2022-07-09T05:23:46;17.70;99.90
17178;DHT22;8704;52.006;4.374;2022-07-09T05:26:14;17.80;99.90
17178;DHT22;8704;52.006;4.374;2022-07-09T05:28:42;17.80;99.90
17178;DHT22;8704;52.006;4.374;2022-07-09T05:31:10;17.90;99.90
17178;DHT22;8704;52.006;4.374;2022-07-09T05:33:58;17.80;99.90
17178;DHT22;8704;52.006;4.374;2022-07-09T05:36:28;17.90;99.90
17178;DHT22;8704;52.006;4.374;2022-07-09T05:38:57;17.90;99.90
17178;DHT22;8704;52.006;4.374;2022-07-09T05:41:25;18.00;99.90
17178;DHT22;8704;52.006;4.374;2022-07-09T05:43:53;18.10;99.90
17178;DHT22;8704;52.006;4.374;2022-07-09T05:46:21;18.10;99.90
17178;DHT22;8704;52.006;4.374;2022-07-09T05:48:50;18.10;99.90
17178;DHT22;8704;52.006;4.374;2022-07-09T05:51:17;18.10;99.90
17178;DHT22;8704;52.006;4.374;2022-07-09T05:53:47;18.10;99.90
17178;DHT22;8704;52.006;4.374;2022-07-09T05:56:15;18.20;99.90
17178;DHT22;8704;52.006;4.374;2022-07-09T05:58:43;18.20;99.90
17178;DHT22;8704;52.006;4.374;2022-07-09T06:01:11;18.20;99.90
17178;DHT22;8704;52.006;4.374;2022-07-09T06:03:40;18.30;99.90
17178;DHT22;8704;52.006;4.374;2022-07-09T06:06:10;18.30;99.90
17178;DHT22;8704;52.006;4.374;2022-07-09T06:08:38;18.40;99.90
17178;DHT22;8704;52.006;4.374;2022-07-09T06:11:07;18.50;99.90
17178;DHT22;8704;52.006;4.374;2022-07-09T06:13:35;18.50;99.90
17178;DHT22;8704;52.006;4.374;2022-07-09T06:16:04;18.50;99.90
17178;DHT22;8704;52.006;4.374;2022-07-09T06:18:32;18.50;99.90
17178;DHT22;8704;52.006;4.374;2022-07-09T06:21:00;18.40;99.90
17178;DHT22;8704;52.006;4.374;2022-07-09T06:23:28;18.40;99.90
17178;DHT22;8704;52.006;4.374;2022-07-09T06:25:56;18.50;99.90
17178;DHT22;8704;52.006;4.374;2022-07-09T06:28:25;18.60;99.90
17178;DHT22;8704;52.006;4.374;2022-07-09T06:30:53;18.60;99.90
17178;DHT22;8704;52.006;4.374;2022-07-09T06:33:21;18.70;99.90
17178;DHT22;8704;52.006;4.374;2022-07-09T06:35:49;18.70;99.90
17178;DHT22;8704;52.006;4.374;2022-07-09T06:38:17;18.80;99.90
17178;DHT22;8704;52.006;4.374;2022-07-09T06:40:45;18.90;99.90
17178;DHT22;8704;52.006;4.374;2022-07-09T06:43:13;18.90;99.90
17178;DHT22;8704;52.006;4.374;2022-07-09T06:45:42;19.00;99.90
17178;DHT22;8704;52.006;4.374;2022-07-09T06:48:11;19.00;99.90
17178;DHT22;8704;52.006;4.374;2022-07-09T06:50:38;19.00;99.90
17178;DHT22;8704;52.006;4.374;2022-07-09T06:53:06;19.10;99.90
17178;DHT22;8704;52.006;4.374;2022-07-09T06:55:34;19.10;99.90
17178;DHT22;8704;52.006;4.374;2022-07-09T06:58:03;19.20;99.90
17178;DHT22;8704;52.006;4.374;2022-07-09T07:00:30;19.30;99.90
17178;DHT22;8704;52.006;4.374;2022-07-09T07:03:01;19.30;99.90
17178;DHT22;8704;52.006;4.374;2022-07-09T07:05:29;19.30;99.90
17178;DHT22;8704;52.006;4.374;2022-07-09T07:07:57;19.30;99.90
17178;DHT22;8704;52.006;4.374;2022-07-09T07:10:25;19.30;99.90
17178;DHT22;8704;52.006;4.374;2022-07-09T07:12:54;19.30;99.90
17178;DHT22;8704;52.006;4.374;2022-07-09T07:15:22;19.40;99.90
17178;DHT22;8704;52.006;4.374;2022-07-09T07:17:50;19.50;99.90
17178;DHT22;8704;52.006;4.374;2022-07-09T07:20:25;19.60;99.90
17178;DHT22;8704;52.006;4.374;2022-07-09T07:22:53;19.70;99.90
17178;DHT22;8704;52.006;4.374;2022-07-09T07:25:21;19.60;99.90
17178;DHT22;8704;52.006;4.374;2022-07-09T07:27:49;19.70;99.90
17178;DHT22;8704;52.006;4.374;2022-07-09T07:30:17;19.60;99.90
17178;DHT22;8704;52.006;4.374;2022-07-09T07:32:45;19.70;99.90
17178;DHT22;8704;52.006;4.374;2022-07-09T07:35:13;19.60;99.90
17178;DHT22;8704;52.006;4.374;2022-07-09T07:37:42;19.60;99.90
17178;DHT22;8704;52.006;4.374;2022-07-09T07:40:11;19.60;99.90
17178;DHT22;8704;52.006;4.374;2022-07-09T07:42:39;19.50;99.90
17178;DHT22;8704;52.006;4.374;2022-07-09T07:45:08;19.50;99.90
17178;DHT22;8704;52.006;4.374;2022-07-09T07:47:36;19.50;99.90
17178;DHT22;8704;52.006;4.374;2022-07-09T07:50:06;19.60;99.90
17178;DHT22;8704;52.006;4.374;2022-07-09T07:52:34;19.60;99.90
17178;DHT22;8704;52.006;4.374;2022-07-09T07:55:04;19.60;99.90
17178;DHT22;8704;52.006;4.374;2022-07-09T07:57:32;19.60;99.90
17178;DHT22;8704;52.006;4.374;2022-07-09T08:00:00;19.50;99.90
17178;DHT22;8704;52.006;4.374;2022-07-09T08:02:29;19.60;99.90
17178;DHT22;8704;52.006;4.374;2022-07-09T08:04:57;19.70;99.90
17178;DHT22;8704;52.006;4.374;2022-07-09T08:07:25;19.80;99.90
17178;DHT22;8704;52.006;4.374;2022-07-09T08:09:53;19.80;99.90
17178;DHT22;8704;52.006;4.374;2022-07-09T08:12:22;20.00;99.90
17178;DHT22;8704;52.006;4.374;2022-07-09T08:14:50;20.00;99.90
17178;DHT22;8704;52.006;4.374;2022-07-09T08:17:18;20.10;99.90
17178;DHT22;8704;52.006;4.374;2022-07-09T08:19:46;20.10;99.90
17178;DHT22;8704;52.006;4.374;2022-07-09T08:22:14;20.10;99.90
17178;DHT22;8704;52.006;4.374;2022-07-09T08:24:42;20.20;99.90
17178;DHT22;8704;52.006;4.374;2022-07-09T08:27:10;20.30;99.90
17178;DHT22;8704;52.006;4.374;2022-07-09T08:29:39;20.20;65.50
17178;DHT22;8704;52.006;4.374;2022-07-09T08:32:08;20.40;99.90
17178;DHT22;8704;52.006;4.374;2022-07-09T08:34:36;20.40;31.60
17178;DHT22;8704;52.006;4.374;2022-07-09T08:37:04;20.40;19.80
17178;DHT22;8704;52.006;4.374;2022-07-09T08:39:32;20.30;7.80
17178;DHT22;8704;52.006;4.374;2022-07-09T08:42:00;20.30;23.60
17178;DHT22;8704;52.006;4.374;2022-07-09T08:44:29;20.30;1.00
17178;DHT22;8704;52.006;4.374;2022-07-09T08:47:00;20.30;35.70
17178;DHT22;8704;52.006;4.374;2022-07-09T08:49:31;20.50;1.00
17178;DHT22;8704;52.006;4.374;2022-07-09T08:52:02;20.50;1.00
17178;DHT22;8704;52.006;4.374;2022-07-09T08:54:31;20.70;3.00
17178;DHT22;8704;52.006;4.374;2022-07-09T08:56:59;20.70;23.90
17178;DHT22;8704;52.006;4.374;2022-07-09T08:59:27;20.80;1.00
17178;DHT22;8704;52.006;4.374;2022-07-09T09:01:55;20.90;39.30
17178;DHT22;8704;52.006;4.374;2022-07-09T09:04:24;21.00;47.80
17178;DHT22;8704;52.006;4.374;2022-07-09T09:06:52;21.10;3.70
17178;DHT22;8704;52.006;4.374;2022-07-09T09:09:21;21.00;1.00
17178;DHT22;8704;52.006;4.374;2022-07-09T09:11:49;21.10;1.00
17178;DHT22;8704;52.006;4.374;2022-07-09T09:14:20;20.90;1.00
17178;DHT22;8704;52.006;4.374;2022-07-09T09:16:49;21.10;1.00
17178;DHT22;8704;52.006;4.374;2022-07-09T09:19:17;21.20;1.00
17178;DHT22;8704;52.006;4.374;2022-07-09T09:21:51;21.10;99.90
17178;DHT22;8704;52.006;4.374;2022-07-09T09:24:25;21.20;99.90
17178;DHT22;8704;52.006;4.374;2022-07-09T09:26:56;21.40;99.90
17178;DHT22;8704;52.006;4.374;2022-07-09T09:29:24;21.50;1.00
17178;DHT22;8704;52.006;4.374;2022-07-09T09:31:53;21.40;1.00
17178;DHT22;8704;52.006;4.374;2022-07-09T09:34:22;21.40;1.00
17178;DHT22;8704;52.006;4.374;2022-07-09T09:36:52;21.60;1.00
17178;DHT22;8704;52.006;4.374;2022-07-09T09:39:22;21.40;1.00
17178;DHT22;8704;52.006;4.374;2022-07-09T09:41:51;21.20;1.00
17178;DHT22;8704;52.006;4.374;2022-07-09T09:44:21;21.50;1.00
17178;DHT22;8704;52.006;4.374;2022-07-09T09:46:50;21.60;1.00
17178;DHT22;8704;52.006;4.374;2022-07-09T09:49:18;21.40;1.00
17178;DHT22;8704;52.006;4.374;2022-07-09T09:51:49;21.30;1.00
17178;DHT22;8704;52.006;4.374;2022-07-09T09:54:20;21.30;99.90
17178;DHT22;8704;52.006;4.374;2022-07-09T09:56:49;21.40;1.00
17178;DHT22;8704;52.006;4.374;2022-07-09T09:59:17;21.30;1.00
17178;DHT22;8704;52.006;4.374;2022-07-09T10:01:45;21.30;1.00
17178;DHT22;8704;52.006;4.374;2022-07-09T10:04:14;21.30;1.00
17178;DHT22;8704;52.006;4.374;2022-07-09T10:06:43;21.40;1.00
17178;DHT22;8704;52.006;4.374;2022-07-09T10:09:12;21.50;99.90
17178;DHT22;8704;52.006;4.374;2022-07-09T10:11:44;21.50;1.00
17178;DHT22;8704;52.006;4.374;2022-07-09T10:14:16;21.60;99.90
17178;DHT22;8704;52.006;4.374;2022-07-09T10:16:45;21.70;1.00
17178;DHT22;8704;52.006;4.374;2022-07-09T10:19:23;21.80;1.00
17178;DHT22;8704;52.006;4.374;2022-07-09T10:21:52;21.80;99.90
17178;DHT22;8704;52.006;4.374;2022-07-09T10:24:24;21.60;99.90
17178;DHT22;8704;52.006;4.374;2022-07-09T10:27:03;21.80;99.90
17178;DHT22;8704;52.006;4.374;2022-07-09T10:29:32;21.80;1.00
17178;DHT22;8704;52.006;4.374;2022-07-09T10:32:00;21.80;99.90
17178;DHT22;8704;52.006;4.374;2022-07-09T10:34:41;21.30;91.30
17178;DHT22;8704;52.006;4.374;2022-07-09T10:37:10;21.50;99.90
17178;DHT22;8704;52.006;4.374;2022-07-09T10:39:38;22.00;1.00
17178;DHT22;8704;52.006;4.374;2022-07-09T10:42:18;22.10;41.30
17178;DHT22;8704;52.006;4.374;2022-07-09T10:44:47;22.10;1.00
17178;DHT22;8704;52.006;4.374;2022-07-09T10:47:16;22.30;1.00
17178;DHT22;8704;52.006;4.374;2022-07-09T10:49:45;22.30;1.00
17178;DHT22;8704;52.006;4.374;2022-07-09T10:52:12;22.00;99.90
17178;DHT22;8704;52.006;4.374;2022-07-09T10:54:47;21.70;1.00
17178;DHT22;8704;52.006;4.374;2022-07-09T10:57:17;21.50;99.90
17178;DHT22;8704;52.006;4.374;2022-07-09T10:59:46;21.50;1.00
17178;DHT22;8704;52.006;4.374;2022-07-09T11:02:18;21.50;99.90
17178;DHT22;8704;52.006;4.374;2022-07-09T11:04:51;21.50;99.90
17178;DHT22;8704;52.006;4.374;2022-07-09T11:07:21;21.60;1.00
17178;DHT22;8704;52.006;4.374;2022-07-09T11:09:50;21.70;99.90
17178;DHT22;8704;52.006;4.374;2022-07-09T11:12:21;21.60;1.00
17178;DHT22;8704;52.006;4.374;2022-07-09T11:14:50;21.70;99.90
17178;DHT22;8704;52.006;4.374;2022-07-09T11:17:20;21.90;99.90
17178;DHT22;8704;52.006;4.374;2022-07-09T11:19:49;21.70;1.00
17178;DHT22;8704;52.006;4.374;2022-07-09T11:22:17;21.70;1.00
17178;DHT22;8704;52.006;4.374;2022-07-09T11:24:45;21.60;1.00
17178;DHT22;8704;52.006;4.374;2022-07-09T11:27:13;21.80;99.90
17178;DHT22;8704;52.006;4.374;2022-07-09T11:29:46;22.00;1.00
17178;DHT22;8704;52.006;4.374;2022-07-09T11:32:15;21.40;1.00
17178;DHT22;8704;52.006;4.374;2022-07-09T11:34:49;21.60;1.00
17178;DHT22;8704;52.006;4.374;2022-07-09T11:37:22;21.90;1.00
17178;DHT22;8704;52.006;4.374;2022-07-09T11:39:51;21.60;1.00
17178;DHT22;8704;52.006;4.374;2022-07-09T11:42:19;21.80;99.90
17178;DHT22;8704;52.006;4.374;2022-07-09T11:44:55;22.00;99.90
17178;DHT22;8704;52.006;4.374;2022-07-09T11:47:32;21.80;1.00
17178;DHT22;8704;52.006;4.374;2022-07-09T11:50:07;22.10;1.00
17178;DHT22;8704;52.006;4.374;2022-07-09T11:52:36;22.40;99.90
17178;DHT22;8704;52.006;4.374;2022-07-09T11:55:10;22.30;99.90
17178;DHT22;8704;52.006;4.374;2022-07-09T11:57:38;22.50;1.00
17178;DHT22;8704;52.006;4.374;2022-07-09T12:00:20;22.10;1.00
17178;DHT22;8704;52.006;4.374;2022-07-09T12:02:48;22.50;1.00
17178;DHT22;8704;52.006;4.374;2022-07-09T12:05:28;22.80;1.00
17178;DHT22;8704;52.006;4.374;2022-07-09T12:07:59;22.90;1.00
17178;DHT22;8704;52.006;4.374;2022-07-09T12:10:30;23.00;99.90
17178;DHT22;8704;52.006;4.374;2022-07-09T12:12:59;22.90;99.90
17178;DHT22;8704;52.006;4.374;2022-07-09T12:15:29;23.10;99.90
17178;DHT22;8704;52.006;4.374;2022-07-09T12:17:59;23.60;27.80
17178;DHT22;8704;52.006;4.374;2022-07-09T12:20:28;23.90;99.90
17178;DHT22;8704;52.006;4.374;2022-07-09T12:22:57;23.70;15.90
17178;DHT22;8704;52.006;4.374;2022-07-09T12:25:25;23.60;1.00
17178;DHT22;8704;52.006;4.374;2022-07-09T12:27:53;23.40;1.00
17178;DHT22;8704;52.006;4.374;2022-07-09T12:30:22;23.20;1.00
17178;DHT22;8704;52.006;4.374;2022-07-09T12:32:51;23.70;1.00
17178;DHT22;8704;52.006;4.374;2022-07-09T12:35:20;23.70;1.00
17178;DHT22;8704;52.006;4.374;2022-07-09T12:37:48;23.60;1.00
17178;DHT22;8704;52.006;4.374;2022-07-09T12:40:16;23.60;99.90
17178;DHT22;8704;52.006;4.374;2022-07-09T12:42:44;23.40;99.90
17178;DHT22;8704;52.006;4.374;2022-07-09T12:45:12;23.80;99.90
17178;DHT22;8704;52.006;4.374;2022-07-09T12:47:40;24.10;1.00
17178;DHT22;8704;52.006;4.374;2022-07-09T12:50:09;24.00;1.00
17178;DHT22;8704;52.006;4.374;2022-07-09T12:52:38;24.00;1.00
17178;DHT22;8704;52.006;4.374;2022-07-09T12:55:07;24.00;1.00
17178;DHT22;8704;52.006;4.374;2022-07-09T12:57:36;24.20;1.00
17178;DHT22;8704;52.006;4.374;2022-07-09T13:00:06;24.60;99.90
17178;DHT22;8704;52.006;4.374;2022-07-09T13:02:34;24.10;1.00
17178;DHT22;8704;52.006;4.374;2022-07-09T13:05:02;24.00;99.90
17178;DHT22;8704;52.006;4.374;2022-07-09T13:07:31;23.80;99.90
17178;DHT22;8704;52.006;4.374;2022-07-09T13:09:59;24.00;1.00
17178;DHT22;8704;52.006;4.374;2022-07-09T13:12:27;24.10;1.00
17178;DHT22;8704;52.006;4.374;2022-07-09T13:14:55;24.30;1.00
17178;DHT22;8704;52.006;4.374;2022-07-09T13:17:26;24.20;99.90
17178;DHT22;8704;52.006;4.374;2022-07-09T13:19:57;24.10;99.90
17178;DHT22;8704;52.006;4.374;2022-07-09T13:22:25;24.40;1.00
17178;DHT22;8704;52.006;4.374;2022-07-09T13:24:55;24.60;99.90
17178;DHT22;8704;52.006;4.374;2022-07-09T13:27:22;24.40;99.90
17178;DHT22;8704;52.006;4.374;2022-07-09T13:29:51;24.60;1.00
17178;DHT22;8704;52.006;4.374;2022-07-09T13:32:19;24.70;1.00
17178;DHT22;8704;52.006;4.374;2022-07-09T13:34:49;24.40;99.90
17178;DHT22;8704;52.006;4.374;2022-07-09T13:37:17;24.60;99.90
17178;DHT22;8704;52.006;4.374;2022-07-09T13:39:45;25.20;99.90
17178;DHT22;8704;52.006;4.374;2022-07-09T13:42:14;25.70;99.90
17178;DHT22;8704;52.006;4.374;2022-07-09T13:44:42;26.20;99.90
17178;DHT22;8704;52.006;4.374;2022-07-09T13:47:11;26.30;99.90
17178;DHT22;8704;52.006;4.374;2022-07-09T13:49:39;26.10;99.90
17178;DHT22;8704;52.006;4.374;2022-07-09T13:52:07;26.10;99.90
17178;DHT22;8704;52.006;4.374;2022-07-09T13:54:35;26.30;99.90
17178;DHT22;8704;52.006;4.374;2022-07-09T13:57:03;26.30;99.90
17178;DHT22;8704;52.006;4.374;2022-07-09T13:59:33;26.20;99.90
17178;DHT22;8704;52.006;4.374;2022-07-09T14:02:00;25.80;99.90
17178;DHT22;8704;52.006;4.374;2022-07-09T14:04:30;25.70;99.90
17178;DHT22;8704;52.006;4.374;2022-07-09T14:06:58;26.00;99.90
17178;DHT22;8704;52.006;4.374;2022-07-09T14:09:26;26.10;99.90
17178;DHT22;8704;52.006;4.374;2022-07-09T14:11:54;26.20;99.90
17178;DHT22;8704;52.006;4.374;2022-07-09T14:14:22;26.50;99.90
17178;DHT22;8704;52.006;4.374;2022-07-09T14:16:51;26.70;99.90
17178;DHT22;8704;52.006;4.374;2022-07-09T14:19:19;26.20;99.90
17178;DHT22;8704;52.006;4.374;2022-07-09T14:21:47;26.30;99.90
17178;DHT22;8704;52.006;4.374;2022-07-09T14:24:15;26.50;99.90
17178;DHT22;8704;52.006;4.374;2022-07-09T14:26:43;26.90;99.90
17178;DHT22;8704;52.006;4.374;2022-07-09T14:29:12;26.70;99.90
17178;DHT22;8704;52.006;4.374;2022-07-09T14:31:48;27.00;99.90
17178;DHT22;8704;52.006;4.374;2022-07-09T14:34:18;27.40;99.90
17178;DHT22;8704;52.006;4.374;2022-07-09T14:36:46;27.50;69.90
17178;DHT22;8704;52.006;4.374;2022-07-09T14:39:16;27.60;41.70
17178;DHT22;8704;52.006;4.374;2022-07-09T14:41:44;27.60;24.00
17178;DHT22;8704;52.006;4.374;2022-07-09T14:44:12;28.00;18.30
17178;DHT22;8704;52.006;4.374;2022-07-09T14:46:40;28.00;1.00
17178;DHT22;8704;52.006;4.374;2022-07-09T14:49:09;28.00;1.00
17178;DHT22;8704;52.006;4.374;2022-07-09T14:51:39;28.00;1.00
17178;DHT22;8704;52.006;4.374;2022-07-09T14:54:07;28.40;1.00
17178;DHT22;8704;52.006;4.374;2022-07-09T14:56:35;28.40;1.00
17178;DHT22;8704;52.006;4.374;2022-07-09T14:59:03;28.40;1.00
17178;DHT22;8704;52.006;4.374;2022-07-09T15:01:31;29.00;1.00
17178;DHT22;8704;52.006;4.374;2022-07-09T15:03:59;29.10;1.00
17178;DHT22;8704;52.006;4.374;2022-07-09T15:06:27;29.10;1.00
17178;DHT22;8704;52.006;4.374;2022-07-09T15:08:56;29.20;1.00
17178;DHT22;8704;52.006;4.374;2022-07-09T15:11:24;28.70;1.00
17178;DHT22;8704;52.006;4.374;2022-07-09T15:13:52;28.30;1.00
17178;DHT22;8704;52.006;4.374;2022-07-09T15:16:20;28.90;1.00
17178;DHT22;8704;52.006;4.374;2022-07-09T15:18:48;29.20;1.00
17178;DHT22;8704;52.006;4.374;2022-07-09T15:21:17;28.30;1.00
17178;DHT22;8704;52.006;4.374;2022-07-09T15:23:45;28.50;1.00
17178;DHT22;8704;52.006;4.374;2022-07-09T15:26:14;28.00;1.00
17178;DHT22;8704;52.006;4.374;2022-07-09T15:28:42;28.30;1.00
17178;DHT22;8704;52.006;4.374;2022-07-09T15:31:10;28.40;1.00
17178;DHT22;8704;52.006;4.374;2022-07-09T15:33:38;29.00;1.00
17178;DHT22;8704;52.006;4.374;2022-07-09T15:36:06;28.60;1.00
17178;DHT22;8704;52.006;4.374;2022-07-09T15:38:35;28.70;1.00
17178;DHT22;8704;52.006;4.374;2022-07-09T15:41:04;28.70;1.00
17178;DHT22;8704;52.006;4.374;2022-07-09T15:43:38;28.80;1.00
17178;DHT22;8704;52.006;4.374;2022-07-09T15:46:06;28.90;1.00
17178;DHT22;8704;52.006;4.374;2022-07-09T15:48:35;29.20;1.00
17178;DHT22;8704;52.006;4.374;2022-07-09T15:51:06;29.30;1.00
17178;DHT22;8704;52.006;4.374;2022-07-09T15:53:34;29.30;1.00
17178;DHT22;8704;52.006;4.374;2022-07-09T15:56:03;29.30;1.00
17178;DHT22;8704;52.006;4.374;2022-07-09T15:58:31;28.90;1.00
17178;DHT22;8704;52.006;4.374;2022-07-09T16:01:00;29.20;1.00